sensor_id;sensor_type;location;lat;lon;timestamp;temperature;humidity
3478;DHT22;37937;61.490;23.506;2022-09-20T00:00:41;9.50;99.90
3478;DHT22;37937;61.490;23.506;2022-09-20T00:03:07;9.40;99.90
3478;DHT22;37937;61.490;23.506;2022-09-20T00:05:33;9.40;99.90
3478;DHT22;37937;61.490;23.506;2022-09-20T00:08:00;9.30;99.90
3478;DHT22;37937;61.490;23.506;2022-09-20T00:10:26;9.30;99.90
3478;DHT22;37937;61.490;23.506;2022-09-20T00:12:51;9.30;99.90
3478;DHT22;37937;61.490;23.506;2022-09-20T00:15:18;9.30;99.90
3478;DHT22;37937;61.490;23.506;2022-09-20T00:17:43;9.30;99.90
3478;DHT22;37937;61.490;23.506;2022-09-20T00:20:09;9.20;99.90
3478;DHT22;37937;61.490;23.506;2022-09-20T00:22:35;9.30;99.90
3478;DHT22;37937;61.490;23.506;2022-09-20T00:25:01;9.30;99.90
3478;DHT22;37937;61.490;23.506;2022-09-20T00:27:26;9.30;99.90
3478;DHT22;37937;61.490;23.506;2022-09-20T00:29:52;9.30;99.90
3478;DHT22;37937;61.490;23.506;2022-09-20T00:32:18;9.30;99.90
3478;DHT22;37937;61.490;23.506;2022-09-20T00:34:43;9.30;99.90
3478;DHT22;37937;61.490;23.506;2022-09-20T00:37:28;9.30;99.90
3478;DHT22;37937;61.490;23.506;2022-09-20T00:39:54;9.30;99.90
3478;DHT22;37937;61.490;23.506;2022-09-20T00:42:25;9.30;99.90
3478;DHT22;37937;61.490;23.506;2022-09-20T00:45:02;9.30;99.90
3478;DHT22;37937;61.490;23.506;2022-09-20T00:47:46;9.30;99.90
3478;DHT22;37937;61.490;23.506;2022-09-20T00:52:46;9.30;99.90
3478;DHT22;37937;61.490;23.506;2022-09-20T00:55:13;9.30;99.90
3478;DHT22;37937;61.490;23.506;2022-09-20T00:57:40;9.20;99.90
3478;DHT22;37937;61.490;23.506;2022-09-20T01:00:07;9.20;99.90
3478;DHT22;37937;61.490;23.506;2022-09-20T01:02:33;9.20;99.90
3478;DHT22;37937;61.490;23.506;2022-09-20T01:05:01;9.20;99.90
3478;DHT22;37937;61.490;23.506;2022-09-20T01:07:26;9.20;99.90
3478;DHT22;37937;61.490;23.506;2022-09-20T01:09:52;9.20;99.90
3478;DHT22;37937;61.490;23.506;2022-09-20T01:12:19;9.20;99.90
3478;DHT22;37937;61.490;23.506;2022-09-20T01:14:46;9.20;99.90
3478;DHT22;37937;61.490;23.506;2022-09-20T01:17:14;9.20;99.90
3478;DHT22;37937;61.490;23.506;2022-09-20T01:19:49;9.10;99.90
3478;DHT22;37937;61.490;23.506;2022-09-20T01:32:12;9.20;99.90
3478;DHT22;37937;61.490;23.506;2022-09-20T01:34:42;9.20;99.90
3478;DHT22;37937;61.490;23.506;2022-09-20T01:42:08;9.10;99.90
3478;DHT22;37937;61.490;23.506;2022-09-20T01:49:44;9.20;99.90
3478;DHT22;37937;61.490;23.506;2022-09-20T02:00:20;9.10;99.90
3478;DHT22;37937;61.490;23.506;2022-09-20T02:07:52;9.00;99.90
3478;DHT22;37937;61.490;23.506;2022-09-20T02:10:26;9.00;99.90
3478;DHT22;37937;61.490;23.506;2022-09-20T02:21:04;9.00;99.90
3478;DHT22;37937;61.490;23.506;2022-09-20T02:23:38;9.00;99.90
3478;DHT22;37937;61.490;23.506;2022-09-20T02:38:58;8.90;99.90
3478;DHT22;37937;61.490;23.506;2022-09-20T02:49:39;8.90;99.90
3478;DHT22;37937;61.490;23.506;2022-09-20T02:54:56;8.90;99.90
3478;DHT22;37937;61.490;23.506;2022-09-20T03:00:04;8.80;99.90
3478;DHT22;37937;61.490;23.506;2022-09-20T03:02:41;8.80;99.90
3478;DHT22;37937;61.490;23.506;2022-09-20T03:05:24;8.90;99.90
3478;DHT22;37937;61.490;23.506;2022-09-20T03:10:40;8.80;99.90
3478;DHT22;37937;61.490;23.506;2022-09-20T03:18:10;8.80;99.90
3478;DHT22;37937;61.490;23.506;2022-09-20T03:33:39;8.80;99.90
3478;DHT22;37937;61.490;23.506;2022-09-20T03:38:43;8.80;99.90
3478;DHT22;37937;61.490;23.506;2022-09-20T03:46:45;8.80;99.90
3478;DHT22;37937;61.490;23.506;2022-09-20T04:00:36;8.80;99.90
3478;DHT22;37937;61.490;23.506;2022-09-20T04:07:59;8.80;99.90
3478;DHT22;37937;61.490;23.506;2022-09-20T04:10:37;8.80;99.90
3478;DHT22;37937;61.490;23.506;2022-09-20T04:21:14;8.80;99.90
3478;DHT22;37937;61.490;23.506;2022-09-20T04:26:28;8.80;99.90
3478;DHT22;37937;61.490;23.506;2022-09-20T04:33:50;8.80;99.90
3478;DHT22;37937;61.490;23.506;2022-09-20T04:36:51;8.90;99.90
3478;DHT22;37937;61.490;23.506;2022-09-20T04:44:25;8.80;99.90
3478;DHT22;37937;61.490;23.506;2022-09-20T04:55:18;8.80;99.90
3478;DHT22;37937;61.490;23.506;2022-09-20T05:00:58;8.90;99.90
3478;DHT22;37937;61.490;23.506;2022-09-20T05:16:21;8.90;99.90
3478;DHT22;37937;61.490;23.506;2022-09-20T05:24:09;8.90;99.90
3478;DHT22;37937;61.490;23.506;2022-09-20T05:29:10;8.90;99.90
3478;DHT22;37937;61.490;23.506;2022-09-20T05:31:45;8.90;99.90
3478;DHT22;37937;61.490;23.506;2022-09-20T05:34:34;8.90;99.90
3478;DHT22;37937;61.490;23.506;2022-09-20T05:37:15;8.90;99.90
3478;DHT22;37937;61.490;23.506;2022-09-20T05:42:52;9.00;99.90
3478;DHT22;37937;61.490;23.506;2022-09-20T05:45:15;8.90;99.90
3478;DHT22;37937;61.490;23.506;2022-09-20T05:50:26;8.90;99.90
3478;DHT22;37937;61.490;23.506;2022-09-20T06:00:53;8.90;99.90
3478;DHT22;37937;61.490;23.506;2022-09-20T06:03:36;8.90;99.90
3478;DHT22;37937;61.490;23.506;2022-09-20T06:16:36;8.90;99.90
3478;DHT22;37937;61.490;23.506;2022-09-20T06:19:17;9.00;99.90
3478;DHT22;37937;61.490;23.506;2022-09-20T06:21:52;8.90;99.90
3478;DHT22;37937;61.490;23.506;2022-09-20T06:27:07;8.90;99.90
3478;DHT22;37937;61.490;23.506;2022-09-20T06:29:35;8.90;99.90
3478;DHT22;37937;61.490;23.506;2022-09-20T06:32:01;8.90;99.90
3478;DHT22;37937;61.490;23.506;2022-09-20T06:34:26;9.00;99.90
3478;DHT22;37937;61.490;23.506;2022-09-20T06:37:09;9.00;99.90
3478;DHT22;37937;61.490;23.506;2022-09-20T06:42:57;8.90;99.90
3478;DHT22;37937;61.490;23.506;2022-09-20T06:45:25;8.90;99.90
3478;DHT22;37937;61.490;23.506;2022-09-20T06:47:50;9.00;99.90
3478;DHT22;37937;61.490;23.506;2022-09-20T06:50:16;8.90;99.90
3478;DHT22;37937;61.490;23.506;2022-09-20T06:52:42;9.00;99.90
3478;DHT22;37937;61.490;23.506;2022-09-20T06:55:12;9.00;99.90
3478;DHT22;37937;61.490;23.506;2022-09-20T06:57:42;8.90;99.90
3478;DHT22;37937;61.490;23.506;2022-09-20T07:00:08;8.90;99.90
3478;DHT22;37937;61.490;23.506;2022-09-20T07:02:36;8.90;99.90
3478;DHT22;37937;61.490;23.506;2022-09-20T07:05:02;8.90;99.90
3478;DHT22;37937;61.490;23.506;2022-09-20T07:07:27;8.80;99.90
3478;DHT22;37937;61.490;23.506;2022-09-20T07:09:53;8.90;99.90
3478;DHT22;37937;61.490;23.506;2022-09-20T07:12:19;8.80;99.90
3478;DHT22;37937;61.490;23.506;2022-09-20T07:14:45;8.80;99.90
3478;DHT22;37937;61.490;23.506;2022-09-20T07:17:11;8.90;99.90
3478;DHT22;37937;61.490;23.506;2022-09-20T07:19:37;9.00;99.90
3478;DHT22;37937;61.490;23.506;2022-09-20T07:22:03;9.00;99.90
3478;DHT22;37937;61.490;23.506;2022-09-20T07:24:28;9.20;99.90
3478;DHT22;37937;61.490;23.506;2022-09-20T07:26:58;9.20;99.90
3478;DHT22;37937;61.490;23.506;2022-09-20T07:29:24;9.20;99.90
3478;DHT22;37937;61.490;23.506;2022-09-20T07:31:50;9.30;99.90
3478;DHT22;37937;61.490;23.506;2022-09-20T07:34:15;9.20;99.90
3478;DHT22;37937;61.490;23.506;2022-09-20T07:36:45;9.40;99.90
3478;DHT22;37937;61.490;23.506;2022-09-20T07:39:11;9.50;99.90
3478;DHT22;37937;61.490;23.506;2022-09-20T07:41:36;9.60;99.90
3478;DHT22;37937;61.490;23.506;2022-09-20T07:44:02;9.70;99.90
3478;DHT22;37937;61.490;23.506;2022-09-20T07:49:35;9.60;99.90
3478;DHT22;37937;61.490;23.506;2022-09-20T07:52:00;9.50;99.90
3478;DHT22;37937;61.490;23.506;2022-09-20T07:54:26;9.50;99.90
3478;DHT22;37937;61.490;23.506;2022-09-20T07:56:52;9.40;99.90
3478;DHT22;37937;61.490;23.506;2022-09-20T07:59:18;9.40;99.90
3478;DHT22;37937;61.490;23.506;2022-09-20T08:01:44;9.50;99.90
3478;DHT22;37937;61.490;23.506;2022-09-20T08:04:10;9.50;99.90
3478;DHT22;37937;61.490;23.506;2022-09-20T08:06:36;9.50;99.90
3478;DHT22;37937;61.490;23.506;2022-09-20T08:09:02;9.60;99.90
3478;DHT22;37937;61.490;23.506;2022-09-20T08:11:28;9.60;99.90
3478;DHT22;37937;61.490;23.506;2022-09-20T08:13:55;9.70;99.90
3478;DHT22;37937;61.490;23.506;2022-09-20T08:16:21;9.80;99.90
3478;DHT22;37937;61.490;23.506;2022-09-20T08:18:51;9.80;99.90
3478;DHT22;37937;61.490;23.506;2022-09-20T08:21:18;9.90;99.90
3478;DHT22;37937;61.490;23.506;2022-09-20T08:23:44;9.80;99.90
3478;DHT22;37937;61.490;23.506;2022-09-20T08:26:12;10.00;99.90
3478;DHT22;37937;61.490;23.506;2022-09-20T08:28:39;10.10;99.90
3478;DHT22;37937;61.490;23.506;2022-09-20T08:31:06;10.20;99.90
3478;DHT22;37937;61.490;23.506;2022-09-20T08:33:32;10.20;99.90
3478;DHT22;37937;61.490;23.506;2022-09-20T08:35:58;10.10;99.90
3478;DHT22;37937;61.490;23.506;2022-09-20T08:38:24;10.00;99.90
3478;DHT22;37937;61.490;23.506;2022-09-20T08:40:58;10.10;99.90
3478;DHT22;37937;61.490;23.506;2022-09-20T08:43:27;10.00;99.90
3478;DHT22;37937;61.490;23.506;2022-09-20T08:45:54;10.10;99.90
3478;DHT22;37937;61.490;23.506;2022-09-20T08:48:20;10.20;99.90
3478;DHT22;37937;61.490;23.506;2022-09-20T08:50:47;10.10;99.90
3478;DHT22;37937;61.490;23.506;2022-09-20T08:53:13;10.10;99.90
3478;DHT22;37937;61.490;23.506;2022-09-20T08:55:38;10.20;99.90
3478;DHT22;37937;61.490;23.506;2022-09-20T08:58:11;10.20;99.90
3478;DHT22;37937;61.490;23.506;2022-09-20T09:00:39;10.20;99.90
3478;DHT22;37937;61.490;23.506;2022-09-20T09:03:09;10.10;99.90
3478;DHT22;37937;61.490;23.506;2022-09-20T09:08:21;9.90;99.90
3478;DHT22;37937;61.490;23.506;2022-09-20T09:10:51;9.80;99.90
3478;DHT22;37937;61.490;23.506;2022-09-20T09:15:49;9.90;99.90
3478;DHT22;37937;61.490;23.506;2022-09-20T09:18:17;9.80;99.90
3478;DHT22;37937;61.490;23.506;2022-09-20T09:20:43;9.70;99.90
3478;DHT22;37937;61.490;23.506;2022-09-20T09:23:21;9.80;99.90
3478;DHT22;37937;61.490;23.506;2022-09-20T09:25:49;9.90;99.90
3478;DHT22;37937;61.490;23.506;2022-09-20T09:28:22;10.00;99.90
3478;DHT22;37937;61.490;23.506;2022-09-20T09:30:48;10.00;99.90
3478;DHT22;37937;61.490;23.506;2022-09-20T09:33:21;10.00;99.90
3478;DHT22;37937;61.490;23.506;2022-09-20T09:38:27;10.10;99.90
3478;DHT22;37937;61.490;23.506;2022-09-20T09:40:54;10.30;99.90
3478;DHT22;37937;61.490;23.506;2022-09-20T09:43:23;10.40;99.90
3478;DHT22;37937;61.490;23.506;2022-09-20T09:45:53;10.20;99.90
3478;DHT22;37937;61.490;23.506;2022-09-20T09:50:45;10.30;99.90
3478;DHT22;37937;61.490;23.506;2022-09-20T09:53:21;10.30;99.90
3478;DHT22;37937;61.490;23.506;2022-09-20T09:58:19;10.50;99.90
3478;DHT22;37937;61.490;23.506;2022-09-20T10:00:48;10.50;99.90
3478;DHT22;37937;61.490;23.506;2022-09-20T10:03:20;10.40;99.90
3478;DHT22;37937;61.490;23.506;2022-09-20T10:13:55;10.60;99.90
3478;DHT22;37937;61.490;23.506;2022-09-20T10:16:45;10.50;99.90
3478;DHT22;37937;61.490;23.506;2022-09-20T10:29:52;10.60;99.90
3478;DHT22;37937;61.490;23.506;2022-09-20T10:40:07;10.70;99.90
3478;DHT22;37937;61.490;23.506;2022-09-20T10:42:44;10.70;99.90
3478;DHT22;37937;61.490;23.506;2022-09-20T10:45:32;10.80;99.90
3478;DHT22;37937;61.490;23.506;2022-09-20T10:53:33;10.70;99.90
3478;DHT22;37937;61.490;23.506;2022-09-20T10:56:08;10.60;99.90
3478;DHT22;37937;61.490;23.506;2022-09-20T11:01:35;10.70;99.90
3478;DHT22;37937;61.490;23.506;2022-09-20T11:04:25;10.50;99.90
3478;DHT22;37937;61.490;23.506;2022-09-20T11:09:42;10.80;99.90
3478;DHT22;37937;61.490;23.506;2022-09-20T11:12:14;10.70;99.90
3478;DHT22;37937;61.490;23.506;2022-09-20T11:14:50;10.50;99.90
3478;DHT22;37937;61.490;23.506;2022-09-20T11:17:24;10.40;99.90
3478;DHT22;37937;61.490;23.506;2022-09-20T11:19:59;10.50;99.90
3478;DHT22;37937;61.490;23.506;2022-09-20T11:22:48;10.70;99.90
3478;DHT22;37937;61.490;23.506;2022-09-20T11:27:43;10.70;99.90
3478;DHT22;37937;61.490;23.506;2022-09-20T11:32:46;10.80;99.90
3478;DHT22;37937;61.490;23.506;2022-09-20T11:37:44;10.70;99.90
3478;DHT22;37937;61.490;23.506;2022-09-20T11:42:46;10.60;99.90
3478;DHT22;37937;61.490;23.506;2022-09-20T11:45:13;10.70;99.90
3478;DHT22;37937;61.490;23.506;2022-09-20T11:47:40;10.60;99.90
3478;DHT22;37937;61.490;23.506;2022-09-20T11:50:17;10.60;99.90
3478;DHT22;37937;61.490;23.506;2022-09-20T11:52:55;10.60;99.90
3478;DHT22;37937;61.490;23.506;2022-09-20T11:58:06;10.40;99.90
3478;DHT22;37937;61.490;23.506;2022-09-20T12:00:33;10.50;99.90
3478;DHT22;37937;61.490;23.506;2022-09-20T12:03:00;10.50;99.90
3478;DHT22;37937;61.490;23.506;2022-09-20T12:05:38;10.60;99.90
3478;DHT22;37937;61.490;23.506;2022-09-20T12:08:05;10.60;99.90
3478;DHT22;37937;61.490;23.506;2022-09-20T12:10:32;10.50;99.90
3478;DHT22;37937;61.490;23.506;2022-09-20T12:13:02;10.40;99.90
3478;DHT22;37937;61.490;23.506;2022-09-20T12:15:35;10.40;99.90
3478;DHT22;37937;61.490;23.506;2022-09-20T12:26:13;10.50;99.90
3478;DHT22;37937;61.490;23.506;2022-09-20T12:28:58;10.50;99.90
3478;DHT22;37937;61.490;23.506;2022-09-20T12:36:21;10.20;99.90
3478;DHT22;37937;61.490;23.506;2022-09-20T12:38:49;10.20;99.90
3478;DHT22;37937;61.490;23.506;2022-09-20T12:41:18;10.10;99.90
3478;DHT22;37937;61.490;23.506;2022-09-20T12:46:30;10.40;99.90
3478;DHT22;37937;61.490;23.506;2022-09-20T12:51:57;10.40;99.90
3478;DHT22;37937;61.490;23.506;2022-09-20T12:54:51;10.40;99.90
3478;DHT22;37937;61.490;23.506;2022-09-20T12:57:26;10.50;99.90
3478;DHT22;37937;61.490;23.506;2022-09-20T12:59:56;10.40;99.90
3478;DHT22;37937;61.490;23.506;2022-09-20T13:07:53;10.30;99.90
3478;DHT22;37937;61.490;23.506;2022-09-20T13:10:33;10.30;99.90
3478;DHT22;37937;61.490;23.506;2022-09-20T13:13:11;10.30;99.90
3478;DHT22;37937;61.490;23.506;2022-09-20T13:15:38;10.40;99.90
3478;DHT22;37937;61.490;23.506;2022-09-20T13:18:04;10.50;99.90
3478;DHT22;37937;61.490;23.506;2022-09-20T13:20:31;10.40;99.90
3478;DHT22;37937;61.490;23.506;2022-09-20T13:22:59;10.30;99.90
3478;DHT22;37937;61.490;23.506;2022-09-20T13:25:25;10.20;99.90
3478;DHT22;37937;61.490;23.506;2022-09-20T13:28:00;10.30;99.90
3478;DHT22;37937;61.490;23.506;2022-09-20T13:30:29;10.40;99.90
3478;DHT22;37937;61.490;23.506;2022-09-20T13:33:13;10.20;99.90
3478;DHT22;37937;61.490;23.506;2022-09-20T13:35:39;10.10;99.90
3478;DHT22;37937;61.490;23.506;2022-09-20T13:38:07;9.90;99.90
3478;DHT22;37937;61.490;23.506;2022-09-20T13:40:40;9.90;99.90
3478;DHT22;37937;61.490;23.506;2022-09-20T13:43:23;9.80;99.90
3478;DHT22;37937;61.490;23.506;2022-09-20T13:45:53;9.80;99.90
3478;DHT22;37937;61.490;23.506;2022-09-20T13:48:22;9.80;99.90
3478;DHT22;37937;61.490;23.506;2022-09-20T13:50:48;10.00;99.90
3478;DHT22;37937;61.490;23.506;2022-09-20T13:53:15;9.90;99.90
3478;DHT22;37937;61.490;23.506;2022-09-20T13:55:41;9.90;99.90
3478;DHT22;37937;61.490;23.506;2022-09-20T13:58:14;10.00;99.90
3478;DHT22;37937;61.490;23.506;2022-09-20T14:00:49;10.00;99.90
3478;DHT22;37937;61.490;23.506;2022-09-20T14:03:15;9.90;99.90
3478;DHT22;37937;61.490;23.506;2022-09-20T14:05:49;9.90;99.90
3478;DHT22;37937;61.490;23.506;2022-09-20T14:08:18;9.90;99.90
3478;DHT22;37937;61.490;23.506;2022-09-20T14:10:45;9.90;99.90
3478;DHT22;37937;61.490;23.506;2022-09-20T14:13:14;9.80;99.90
3478;DHT22;37937;61.490;23.506;2022-09-20T14:15:42;9.90;99.90
3478;DHT22;37937;61.490;23.506;2022-09-20T14:18:17;9.70;99.90
3478;DHT22;37937;61.490;23.506;2022-09-20T14:20:45;9.70;99.90
3478;DHT22;37937;61.490;23.506;2022-09-20T14:23:47;9.70;99.90
3478;DHT22;37937;61.490;23.506;2022-09-20T14:28:32;9.70;99.90
3478;DHT22;37937;61.490;23.506;2022-09-20T14:33:43;9.60;99.90
3478;DHT22;37937;61.490;23.506;2022-09-20T14:36:13;9.50;99.90
3478;DHT22;37937;61.490;23.506;2022-09-20T14:38:42;9.50;99.90
3478;DHT22;37937;61.490;23.506;2022-09-20T14:41:08;9.50;99.90
3478;DHT22;37937;61.490;23.506;2022-09-20T14:43:34;9.60;99.90
3478;DHT22;37937;61.490;23.506;2022-09-20T14:46:01;9.50;99.90
3478;DHT22;37937;61.490;23.506;2022-09-20T14:48:32;9.40;99.90
3478;DHT22;37937;61.490;23.506;2022-09-20T14:53:52;9.30;99.90
3478;DHT22;37937;61.490;23.506;2022-09-20T14:56:36;9.20;99.90
3478;DHT22;37937;61.490;23.506;2022-09-20T14:59:04;9.10;99.90
3478;DHT22;37937;61.490;23.506;2022-09-20T15:01:31;9.20;99.90
3478;DHT22;37937;61.490;23.506;2022-09-20T15:03:57;9.20;99.90
3478;DHT22;37937;61.490;23.506;2022-09-20T15:06:23;9.20;99.90
3478;DHT22;37937;61.490;23.506;2022-09-20T15:08:49;9.20;99.90
3478;DHT22;37937;61.490;23.506;2022-09-20T15:11:15;9.10;99.90
3478;DHT22;37937;61.490;23.506;2022-09-20T15:13:41;9.10;99.90
3478;DHT22;37937;61.490;23.506;2022-09-20T15:16:07;9.10;99.90
3478;DHT22;37937;61.490;23.506;2022-09-20T15:18:34;9.10;99.90
3478;DHT22;37937;61.490;23.506;2022-09-20T15:21:01;9.10;99.90
3478;DHT22;37937;61.490;23.506;2022-09-20T15:23:27;9.10;99.90
3478;DHT22;37937;61.490;23.506;2022-09-20T15:25:53;9.20;99.90
3478;DHT22;37937;61.490;23.506;2022-09-20T15:28:18;8.90;99.90
3478;DHT22;37937;61.490;23.506;2022-09-20T15:30:45;8.90;99.90
3478;DHT22;37937;61.490;23.506;2022-09-20T15:33:11;8.80;99.90
3478;DHT22;37937;61.490;23.506;2022-09-20T15:35:37;8.90;99.90
3478;DHT22;37937;61.490;23.506;2022-09-20T15:38:03;8.90;99.90
3478;DHT22;37937;61.490;23.506;2022-09-20T15:40:30;9.00;99.90
3478;DHT22;37937;61.490;23.506;2022-09-20T15:42:56;8.90;99.90
3478;DHT22;37937;61.490;23.506;2022-09-20T15:45:25;8.90;99.90
3478;DHT22;37937;61.490;23.506;2022-09-20T15:47:52;8.70;99.90
3478;DHT22;37937;61.490;23.506;2022-09-20T15:50:22;8.60;99.90
3478;DHT22;37937;61.490;23.506;2022-09-20T15:52:47;8.60;99.90
3478;DHT22;37937;61.490;23.506;2022-09-20T15:55:17;8.70;99.90
3478;DHT22;37937;61.490;23.506;2022-09-20T15:57:43;8.70;99.90
3478;DHT22;37937;61.490;23.506;2022-09-20T16:00:09;8.60;99.90
3478;DHT22;37937;61.490;23.506;2022-09-20T16:02:35;8.70;99.90
3478;DHT22;37937;61.490;23.506;2022-09-20T16:05:01;8.70;99.90
3478;DHT22;37937;61.490;23.506;2022-09-20T16:07:27;8.70;99.90
3478;DHT22;37937;61.490;23.506;2022-09-20T16:09:53;8.70;99.90
3478;DHT22;37937;61.490;23.506;2022-09-20T16:12:19;8.60;99.90
3478;DHT22;37937;61.490;23.506;2022-09-20T16:14:45;8.60;99.90
3478;DHT22;37937;61.490;23.506;2022-09-20T16:17:10;8.60;99.90
3478;DHT22;37937;61.490;23.506;2022-09-20T16:19:36;8.70;99.90
3478;DHT22;37937;61.490;23.506;2022-09-20T16:22:02;8.60;99.90
3478;DHT22;37937;61.490;23.506;2022-09-20T16:24:32;8.50;99.90
3478;DHT22;37937;61.490;23.506;2022-09-20T16:26:58;8.40;99.90
3478;DHT22;37937;61.490;23.506;2022-09-20T16:29:27;8.40;99.90
3478;DHT22;37937;61.490;23.506;2022-09-20T16:31:54;8.50;99.90
3478;DHT22;37937;61.490;23.506;2022-09-20T16:34:22;8.50;99.90
3478;DHT22;37937;61.490;23.506;2022-09-20T16:36:53;8.50;99.90
3478;DHT22;37937;61.490;23.506;2022-09-20T16:39:20;8.50;99.90
3478;DHT22;37937;61.490;23.506;2022-09-20T16:41:49;8.40;99.90
3478;DHT22;37937;61.490;23.506;2022-09-20T16:44:17;8.50;99.90
3478;DHT22;37937;61.490;23.506;2022-09-20T16:46:43;8.50;99.90
3478;DHT22;37937;61.490;23.506;2022-09-20T16:49:09;8.40;99.90
3478;DHT22;37937;61.490;23.506;2022-09-20T16:51:37;8.50;99.90
3478;DHT22;37937;61.490;23.506;2022-09-20T16:54:05;8.40;99.90
3478;DHT22;37937;61.490;23.506;2022-09-20T16:56:32;8.30;99.90
3478;DHT22;37937;61.490;23.506;2022-09-20T16:58:59;8.40;99.90
3478;DHT22;37937;61.490;23.506;2022-09-20T17:01:25;8.50;99.90
3478;DHT22;37937;61.490;23.506;2022-09-20T17:03:50;8.60;99.90
3478;DHT22;37937;61.490;23.506;2022-09-20T17:06:16;8.50;99.90
3478;DHT22;37937;61.490;23.506;2022-09-20T17:08:43;8.50;99.90
3478;DHT22;37937;61.490;23.506;2022-09-20T17:11:12;8.40;99.90
3478;DHT22;37937;61.490;23.506;2022-09-20T17:13:40;8.40;99.90
3478;DHT22;37937;61.490;23.506;2022-09-20T17:16:08;8.50;99.90
3478;DHT22;37937;61.490;23.506;2022-09-20T17:18:34;8.40;99.90
3478;DHT22;37937;61.490;23.506;2022-09-20T17:21:03;8.40;99.90
3478;DHT22;37937;61.490;23.506;2022-09-20T17:23:30;8.50;99.90
3478;DHT22;37937;61.490;23.506;2022-09-20T17:26:04;8.40;99.90
3478;DHT22;37937;61.490;23.506;2022-09-20T17:28:34;8.40;99.90
3478;DHT22;37937;61.490;23.506;2022-09-20T17:31:00;8.40;99.90
3478;DHT22;37937;61.490;23.506;2022-09-20T17:33:26;8.30;99.90
3478;DHT22;37937;61.490;23.506;2022-09-20T17:35:55;8.30;99.90
3478;DHT22;37937;61.490;23.506;2022-09-20T17:38:24;8.30;99.90
3478;DHT22;37937;61.490;23.506;2022-09-20T17:40:57;8.30;99.90
3478;DHT22;37937;61.490;23.506;2022-09-20T17:43:22;8.30;99.90
3478;DHT22;37937;61.490;23.506;2022-09-20T17:45:48;8.30;99.90
3478;DHT22;37937;61.490;23.506;2022-09-20T17:48:13;8.30;99.90
3478;DHT22;37937;61.490;23.506;2022-09-20T17:50:39;8.40;99.90
3478;DHT22;37937;61.490;23.506;2022-09-20T17:53:04;8.30;99.90
3478;DHT22;37937;61.490;23.506;2022-09-20T17:55:30;8.40;99.90
3478;DHT22;37937;61.490;23.506;2022-09-20T17:57:56;8.30;99.90
3478;DHT22;37937;61.490;23.506;2022-09-20T18:00:21;8.20;99.90
3478;DHT22;37937;61.490;23.506;2022-09-20T18:02:47;8.20;99.90
3478;DHT22;37937;61.490;23.506;2022-09-20T18:05:12;8.20;99.90
3478;DHT22;37937;61.490;23.506;2022-09-20T18:07:38;8.20;99.90
3478;DHT22;37937;61.490;23.506;2022-09-20T18:10:04;8.20;99.90
3478;DHT22;37937;61.490;23.506;2022-09-20T18:12:29;8.20;99.90
3478;DHT22;37937;61.490;23.506;2022-09-20T18:14:55;8.20;99.90
3478;DHT22;37937;61.490;23.506;2022-09-20T18:17:21;8.10;99.90
3478;DHT22;37937;61.490;23.506;2022-09-20T18:19:47;8.00;99.90
3478;DHT22;37937;61.490;23.506;2022-09-20T18:22:13;8.00;99.90
3478;DHT22;37937;61.490;23.506;2022-09-20T18:24:39;8.00;99.90
3478;DHT22;37937;61.490;23.506;2022-09-20T18:27:05;8.00;99.90
3478;DHT22;37937;61.490;23.506;2022-09-20T18:29:30;8.00;99.90
3478;DHT22;37937;61.490;23.506;2022-09-20T18:32:01;7.90;99.90
3478;DHT22;37937;61.490;23.506;2022-09-20T18:34:27;7.80;99.90
3478;DHT22;37937;61.490;23.506;2022-09-20T18:36:56;7.70;99.90
3478;DHT22;37937;61.490;23.506;2022-09-20T18:39:23;7.80;99.90
3478;DHT22;37937;61.490;23.506;2022-09-20T18:41:50;7.80;99.90
3478;DHT22;37937;61.490;23.506;2022-09-20T18:44:17;7.80;99.90
3478;DHT22;37937;61.490;23.506;2022-09-20T18:46:43;7.70;99.90
3478;DHT22;37937;61.490;23.506;2022-09-20T18:49:09;7.60;99.90
3478;DHT22;37937;61.490;23.506;2022-09-20T18:51:40;7.50;99.90
3478;DHT22;37937;61.490;23.506;2022-09-20T18:54:07;7.60;99.90
3478;DHT22;37937;61.490;23.506;2022-09-20T18:56:36;7.60;99.90
3478;DHT22;37937;61.490;23.506;2022-09-20T18:59:03;7.70;99.90
3478;DHT22;37937;61.490;23.506;2022-09-20T19:01:43;7.60;99.90
3478;DHT22;37937;61.490;23.506;2022-09-20T19:07:09;7.50;99.90
3478;DHT22;37937;61.490;23.506;2022-09-20T19:12:26;7.40;99.90
3478;DHT22;37937;61.490;23.506;2022-09-20T19:17:23;7.40;99.90
3478;DHT22;37937;61.490;23.506;2022-09-20T19:19:54;7.40;99.90
3478;DHT22;37937;61.490;23.506;2022-09-20T19:22:28;7.40;99.90
3478;DHT22;37937;61.490;23.506;2022-09-20T19:27:25;7.40;99.90
3478;DHT22;37937;61.490;23.506;2022-09-20T19:29:51;7.30;99.90
3478;DHT22;37937;61.490;23.506;2022-09-20T19:32:17;7.30;99.90
3478;DHT22;37937;61.490;23.506;2022-09-20T19:34:45;7.30;99.90
3478;DHT22;37937;61.490;23.506;2022-09-20T19:37:17;7.30;99.90
3478;DHT22;37937;61.490;23.506;2022-09-20T19:39:57;7.30;99.90
3478;DHT22;37937;61.490;23.506;2022-09-20T19:45:00;7.30;99.90
3478;DHT22;37937;61.490;23.506;2022-09-20T19:52:37;7.30;99.90
3478;DHT22;37937;61.490;23.506;2022-09-20T19:55:03;7.20;99.90
3478;DHT22;37937;61.490;23.506;2022-09-20T19:57:47;7.20;99.90
3478;DHT22;37937;61.490;23.506;2022-09-20T20:00:14;7.20;99.90
3478;DHT22;37937;61.490;23.506;2022-09-20T20:02:43;7.20;99.90
3478;DHT22;37937;61.490;23.506;2022-09-20T20:05:13;7.30;99.90
3478;DHT22;37937;61.490;23.506;2022-09-20T20:07:45;7.30;99.90
3478;DHT22;37937;61.490;23.506;2022-09-20T20:10:19;7.20;99.90
3478;DHT22;37937;61.490;23.506;2022-09-20T20:15:52;7.30;99.90
3478;DHT22;37937;61.490;23.506;2022-09-20T20:18:40;7.30;99.90
3478;DHT22;37937;61.490;23.506;2022-09-20T20:21:14;7.20;99.90
3478;DHT22;37937;61.490;23.506;2022-09-20T20:26:21;7.30;99.90
3478;DHT22;37937;61.490;23.506;2022-09-20T20:28:46;7.20;99.90
3478;DHT22;37937;61.490;23.506;2022-09-20T20:31:12;7.20;99.90
3478;DHT22;37937;61.490;23.506;2022-09-20T20:33:38;7.20;99.90
3478;DHT22;37937;61.490;23.506;2022-09-20T20:36:06;7.20;99.90
3478;DHT22;37937;61.490;23.506;2022-09-20T20:38:33;7.20;99.90
3478;DHT22;37937;61.490;23.506;2022-09-20T20:41:08;7.20;99.90
3478;DHT22;37937;61.490;23.506;2022-09-20T20:43:35;7.20;99.90
3478;DHT22;37937;61.490;23.506;2022-09-20T20:46:01;7.10;99.90
3478;DHT22;37937;61.490;23.506;2022-09-20T20:48:28;7.10;99.90
3478;DHT22;37937;61.490;23.506;2022-09-20T20:51:00;7.10;99.90
3478;DHT22;37937;61.490;23.506;2022-09-20T20:53:29;7.10;99.90
3478;DHT22;37937;61.490;23.506;2022-09-20T20:56:09;7.10;99.90
3478;DHT22;37937;61.490;23.506;2022-09-20T20:58:37;7.10;99.90
3478;DHT22;37937;61.490;23.506;2022-09-20T21:01:05;7.10;99.90
3478;DHT22;37937;61.490;23.506;2022-09-20T21:03:30;7.00;99.90
3478;DHT22;37937;61.490;23.506;2022-09-20T21:06:00;7.00;99.90
3478;DHT22;37937;61.490;23.506;2022-09-20T21:08:32;7.00;99.90
3478;DHT22;37937;61.490;23.506;2022-09-20T21:11:02;7.00;99.90
3478;DHT22;37937;61.490;23.506;2022-09-20T21:13:29;7.00;99.90
3478;DHT22;37937;61.490;23.506;2022-09-20T21:16:02;7.00;99.90